sensor_id;sensor_type;location;lat;lon;timestamp;pressure;altitude;pressure_sealevel;temperature;humidity
59531;BME280;45349;48.692;8.186;2023-04-15T00:00:15;97679.16;;;5.32;70.13
59531;BME280;45349;48.692;8.186;2023-04-15T00:02:45;97678.75;;;5.27;70.54
59531;BME280;45349;48.692;8.186;2023-04-15T00:05:12;97675.22;;;5.28;69.61
59531;BME280;45349;48.692;8.186;2023-04-15T00:07:39;97670.44;;;5.34;70.53
59531;BME280;45349;48.692;8.186;2023-04-15T00:10:06;97667.69;;;5.35;70.64
59531;BME280;45349;48.692;8.186;2023-04-15T00:12:33;97665.25;;;5.34;71.16
59531;BME280;45349;48.692;8.186;2023-04-15T00:15:01;97667.97;;;5.32;70.42
59531;BME280;45349;48.692;8.186;2023-04-15T00:17:28;97672.09;;;5.25;73.06
59531;BME280;45349;48.692;8.186;2023-04-15T00:19:55;97660.53;;;5.19;72.46
59531;BME280;45349;48.692;8.186;2023-04-15T00:22:22;97663.38;;;5.26;72.98
59531;BME280;45349;48.692;8.186;2023-04-15T00:24:48;97661.47;;;5.28;71.95
59531;BME280;45349;48.692;8.186;2023-04-15T00:27:15;97659.94;;;5.35;72.22
59531;BME280;45349;48.692;8.186;2023-04-15T00:29:41;97664.75;;;5.30;73.45
59531;BME280;45349;48.692;8.186;2023-04-15T00:32:09;97665.31;;;5.24;73.13
59531;BME280;45349;48.692;8.186;2023-04-15T00:34:36;97663.28;;;5.17;74.50
59531;BME280;45349;48.692;8.186;2023-04-15T00:37:02;97660.69;;;5.08;74.61
59531;BME280;45349;48.692;8.186;2023-04-15T00:39:29;97667.53;;;4.99;75.94
59531;BME280;45349;48.692;8.186;2023-04-15T00:41:56;97671.88;;;4.98;76.87
59531;BME280;45349;48.692;8.186;2023-04-15T00:44:23;97672.69;;;4.89;78.01
59531;BME280;45349;48.692;8.186;2023-04-15T00:46:50;97670.53;;;4.84;77.05
59531;BME280;45349;48.692;8.186;2023-04-15T00:49:19;97670.56;;;4.75;77.22
59531;BME280;45349;48.692;8.186;2023-04-15T00:51:45;97669.06;;;4.62;76.98
59531;BME280;45349;48.692;8.186;2023-04-15T00:54:14;97664.44;;;4.56;79.38
59531;BME280;45349;48.692;8.186;2023-04-15T00:56:42;97669.19;;;4.51;80.56
59531;BME280;45349;48.692;8.186;2023-04-15T00:59:08;97664.69;;;4.43;80.44
59531;BME280;45349;48.692;8.186;2023-04-15T01:01:36;97664.28;;;4.38;81.18
59531;BME280;45349;48.692;8.186;2023-04-15T01:04:03;97664.56;;;4.45;83.38
59531;BME280;45349;48.692;8.186;2023-04-15T01:06:32;97659.69;;;4.41;83.51
59531;BME280;45349;48.692;8.186;2023-04-15T01:08:59;97655.84;;;4.26;83.21
59531;BME280;45349;48.692;8.186;2023-04-15T01:11:26;97661.41;;;4.11;83.88
59531;BME280;45349;48.692;8.186;2023-04-15T01:13:54;97668.06;;;4.04;86.03
59531;BME280;45349;48.692;8.186;2023-04-15T01:16:21;97666.31;;;4.05;86.56
59531;BME280;45349;48.692;8.186;2023-04-15T01:18:48;97674.69;;;3.97;86.12
59531;BME280;45349;48.692;8.186;2023-04-15T01:21:14;97667.75;;;3.88;87.11
59531;BME280;45349;48.692;8.186;2023-04-15T01:23:43;97661.63;;;3.79;87.62
59531;BME280;45349;48.692;8.186;2023-04-15T01:26:14;97661.44;;;3.71;87.08
59531;BME280;45349;48.692;8.186;2023-04-15T01:28:41;97651.66;;;3.64;87.74
59531;BME280;45349;48.692;8.186;2023-04-15T01:31:09;97661.16;;;3.64;88.33
59531;BME280;45349;48.692;8.186;2023-04-15T01:33:38;97666.63;;;3.71;88.53
59531;BME280;45349;48.692;8.186;2023-04-15T01:36:06;97665.38;;;3.65;87.87
59531;BME280;45349;48.692;8.186;2023-04-15T01:38:34;97660.06;;;3.57;87.73
59531;BME280;45349;48.692;8.186;2023-04-15T01:41:01;97668.56;;;3.47;88.97
59531;BME280;45349;48.692;8.186;2023-04-15T01:43:29;97665.59;;;3.52;90.12
59531;BME280;45349;48.692;8.186;2023-04-15T01:45:56;97664.03;;;3.39;89.89
59531;BME280;45349;48.692;8.186;2023-04-15T01:48:23;97658.59;;;3.33;89.81
59531;BME280;45349;48.692;8.186;2023-04-15T01:50:52;97657.59;;;3.24;89.82
59531;BME280;45349;48.692;8.186;2023-04-15T01:53:20;97654.03;;;3.15;91.00
59531;BME280;45349;48.692;8.186;2023-04-15T01:55:46;97655.13;;;3.13;92.99
59531;BME280;45349;48.692;8.186;2023-04-15T01:58:13;97653.84;;;3.07;93.81
59531;BME280;45349;48.692;8.186;2023-04-15T02:00:42;97655.47;;;3.08;94.39
59531;BME280;45349;48.692;8.186;2023-04-15T02:03:08;97649.25;;;3.10;93.54
59531;BME280;45349;48.692;8.186;2023-04-15T02:05:35;97646.00;;;3.08;93.13
59531;BME280;45349;48.692;8.186;2023-04-15T02:08:02;97649.09;;;3.02;92.76
59531;BME280;45349;48.692;8.186;2023-04-15T02:10:29;97645.06;;;3.09;95.31
59531;BME280;45349;48.692;8.186;2023-04-15T02:12:56;97649.81;;;3.14;93.52
59531;BME280;45349;48.692;8.186;2023-04-15T02:15:26;97644.19;;;3.30;96.10
59531;BME280;45349;48.692;8.186;2023-04-15T02:17:54;97643.75;;;3.25;95.89
59531;BME280;45349;48.692;8.186;2023-04-15T02:20:21;97653.63;;;3.20;96.33
59531;BME280;45349;48.692;8.186;2023-04-15T02:22:48;97649.81;;;3.14;95.45
59531;BME280;45349;48.692;8.186;2023-04-15T02:25:15;97656.84;;;3.12;94.39
59531;BME280;45349;48.692;8.186;2023-04-15T02:27:45;97654.09;;;3.04;94.94
59531;BME280;45349;48.692;8.186;2023-04-15T02:30:12;97659.00;;;3.07;95.60
59531;BME280;45349;48.692;8.186;2023-04-15T02:32:39;97659.75;;;2.98;94.88
59531;BME280;45349;48.692;8.186;2023-04-15T02:35:09;97657.56;;;2.93;95.14
59531;BME280;45349;48.692;8.186;2023-04-15T02:37:36;97660.00;;;2.94;94.97
59531;BME280;45349;48.692;8.186;2023-04-15T02:40:09;97659.41;;;3.02;93.92
59531;BME280;45349;48.692;8.186;2023-04-15T02:42:37;97656.56;;;3.05;93.26
59531;BME280;45349;48.692;8.186;2023-04-15T02:45:05;97663.34;;;3.06;94.37
59531;BME280;45349;48.692;8.186;2023-04-15T02:47:34;97659.38;;;3.23;94.89
59531;BME280;45349;48.692;8.186;2023-04-15T02:50:03;97657.75;;;3.32;96.13
59531;BME280;45349;48.692;8.186;2023-04-15T02:52:32;97649.59;;;3.27;95.66
59531;BME280;45349;48.692;8.186;2023-04-15T02:55:01;97662.59;;;3.16;96.61
59531;BME280;45349;48.692;8.186;2023-04-15T02:57:28;97656.31;;;3.08;95.43
59531;BME280;45349;48.692;8.186;2023-04-15T02:59:58;97656.81;;;3.02;95.55
59531;BME280;45349;48.692;8.186;2023-04-15T03:02:37;97662.66;;;3.04;96.12
59531;BME280;45349;48.692;8.186;2023-04-15T03:05:10;97659.25;;;3.04;96.00
59531;BME280;45349;48.692;8.186;2023-04-15T03:07:43;97663.84;;;3.00;96.16
59531;BME280;45349;48.692;8.186;2023-04-15T03:10:11;97669.88;;;2.89;95.78
59531;BME280;45349;48.692;8.186;2023-04-15T03:12:38;97665.41;;;2.91;97.14
59531;BME280;45349;48.692;8.186;2023-04-15T03:15:08;97670.81;;;2.88;97.33
59531;BME280;45349;48.692;8.186;2023-04-15T03:17:39;97669.06;;;2.89;96.75
59531;BME280;45349;48.692;8.186;2023-04-15T03:20:07;97663.22;;;2.87;96.82
59531;BME280;45349;48.692;8.186;2023-04-15T03:22:34;97671.91;;;2.86;97.23
59531;BME280;45349;48.692;8.186;2023-04-15T03:25:03;97663.47;;;2.84;97.95
59531;BME280;45349;48.692;8.186;2023-04-15T03:27:31;97671.50;;;2.90;97.56
59531;BME280;45349;48.692;8.186;2023-04-15T03:30:00;97671.84;;;2.97;96.82
59531;BME280;45349;48.692;8.186;2023-04-15T03:32:46;97666.50;;;2.89;97.13
59531;BME280;45349;48.692;8.186;2023-04-15T03:35:13;97667.44;;;2.88;98.38
59531;BME280;45349;48.692;8.186;2023-04-15T03:37:40;97664.88;;;2.88;98.68
59531;BME280;45349;48.692;8.186;2023-04-15T03:40:09;97664.53;;;2.81;99.40
59531;BME280;45349;48.692;8.186;2023-04-15T03:42:35;97667.09;;;2.81;99.15
59531;BME280;45349;48.692;8.186;2023-04-15T03:45:02;97664.03;;;2.87;99.38
59531;BME280;45349;48.692;8.186;2023-04-15T03:47:29;97662.16;;;2.89;99.28
59531;BME280;45349;48.692;8.186;2023-04-15T03:49:56;97670.97;;;2.87;98.67
59531;BME280;45349;48.692;8.186;2023-04-15T03:52:22;97664.91;;;2.76;98.70
59531;BME280;45349;48.692;8.186;2023-04-15T03:54:49;97667.69;;;2.85;98.55
59531;BME280;45349;48.692;8.186;2023-04-15T03:57:17;97671.97;;;2.74;98.55
59531;BME280;45349;48.692;8.186;2023-04-15T03:59:43;97674.84;;;2.81;96.68
59531;BME280;45349;48.692;8.186;2023-04-15T04:02:10;97674.03;;;2.80;96.72
59531;BME280;45349;48.692;8.186;2023-04-15T04:04:37;97671.28;;;2.72;95.94
59531;BME280;45349;48.692;8.186;2023-04-15T04:07:03;97672.22;;;2.71;95.91
59531;BME280;45349;48.692;8.186;2023-04-15T04:09:30;97672.72;;;2.86;96.50
59531;BME280;45349;48.692;8.186;2023-04-15T04:11:56;97667.00;;;2.83;97.51
59531;BME280;45349;48.692;8.186;2023-04-15T04:14:24;97674.03;;;2.80;96.63
59531;BME280;45349;48.692;8.186;2023-04-15T04:16:54;97672.41;;;2.79;96.96
59531;BME280;45349;48.692;8.186;2023-04-15T04:19:20;97670.44;;;2.72;97.07
59531;BME280;45349;48.692;8.186;2023-04-15T04:21:47;97671.22;;;2.62;96.69
59531;BME280;45349;48.692;8.186;2023-04-15T04:24:14;97672.56;;;2.66;97.21
59531;BME280;45349;48.692;8.186;2023-04-15T04:26:41;97678.25;;;2.60;96.87
59531;BME280;45349;48.692;8.186;2023-04-15T04:29:07;97676.34;;;2.62;97.97
59531;BME280;45349;48.692;8.186;2023-04-15T04:31:35;97679.69;;;2.53;98.59
59531;BME280;45349;48.692;8.186;2023-04-15T04:34:02;97675.06;;;2.57;98.20
59531;BME280;45349;48.692;8.186;2023-04-15T04:36:28;97673.00;;;2.50;98.57
59531;BME280;45349;48.692;8.186;2023-04-15T04:38:55;97679.53;;;2.55;99.18
59531;BME280;45349;48.692;8.186;2023-04-15T04:41:21;97675.22;;;2.55;98.66
59531;BME280;45349;48.692;8.186;2023-04-15T04:43:48;97666.66;;;2.55;98.74
59531;BME280;45349;48.692;8.186;2023-04-15T04:46:15;97678.56;;;2.67;99.24
59531;BME280;45349;48.692;8.186;2023-04-15T04:48:43;97673.84;;;2.72;100.00
59531;BME280;45349;48.692;8.186;2023-04-15T04:51:10;97669.94;;;2.78;99.52
59531;BME280;45349;48.692;8.186;2023-04-15T04:53:36;97670.47;;;2.93;99.17
59531;BME280;45349;48.692;8.186;2023-04-15T04:56:03;97678.06;;;2.94;98.13
59531;BME280;45349;48.692;8.186;2023-04-15T04:58:30;97676.06;;;2.98;98.55
59531;BME280;45349;48.692;8.186;2023-04-15T05:00:56;97677.22;;;3.15;98.20
59531;BME280;45349;48.692;8.186;2023-04-15T05:03:23;97673.19;;;3.22;98.07
59531;BME280;45349;48.692;8.186;2023-04-15T05:05:51;97676.22;;;3.28;97.97
59531;BME280;45349;48.692;8.186;2023-04-15T05:08:19;97678.72;;;3.39;97.46
59531;BME280;45349;48.692;8.186;2023-04-15T05:10:45;97676.31;;;3.47;96.78
59531;BME280;45349;48.692;8.186;2023-04-15T05:13:12;97675.22;;;3.50;96.22
59531;BME280;45349;48.692;8.186;2023-04-15T05:15:38;97682.44;;;3.56;95.39
59531;BME280;45349;48.692;8.186;2023-04-15T05:18:07;97683.06;;;3.79;94.36
59531;BME280;45349;48.692;8.186;2023-04-15T05:20:34;97685.38;;;3.82;94.14
59531;BME280;45349;48.692;8.186;2023-04-15T05:23:02;97682.53;;;3.86;93.49
59531;BME280;45349;48.692;8.186;2023-04-15T05:25:28;97692.22;;;3.93;94.99
59531;BME280;45349;48.692;8.186;2023-04-15T05:27:55;97697.41;;;3.93;94.87
59531;BME280;45349;48.692;8.186;2023-04-15T05:30:21;97700.56;;;4.07;94.34
59531;BME280;45349;48.692;8.186;2023-04-15T05:32:48;97697.81;;;4.08;93.56
59531;BME280;45349;48.692;8.186;2023-04-15T05:35:15;97698.41;;;4.12;93.56
59531;BME280;45349;48.692;8.186;2023-04-15T05:37:42;97706.56;;;4.17;93.05
59531;BME280;45349;48.692;8.186;2023-04-15T05:40:10;97706.31;;;4.20;94.66
59531;BME280;45349;48.692;8.186;2023-04-15T05:42:37;97706.69;;;4.25;93.15
59531;BME280;45349;48.692;8.186;2023-04-15T05:45:05;97708.06;;;4.29;92.53
59531;BME280;45349;48.692;8.186;2023-04-15T05:47:34;97710.38;;;4.33;93.15
59531;BME280;45349;48.692;8.186;2023-04-15T05:50:00;97704.94;;;4.36;94.35
59531;BME280;45349;48.692;8.186;2023-04-15T05:52:27;97709.84;;;4.39;93.96
59531;BME280;45349;48.692;8.186;2023-04-15T05:54:54;97704.41;;;4.42;94.34
59531;BME280;45349;48.692;8.186;2023-04-15T05:57:22;97701.28;;;4.48;93.47
59531;BME280;45349;48.692;8.186;2023-04-15T05:59:48;97704.28;;;4.53;93.27
59531;BME280;45349;48.692;8.186;2023-04-15T06:02:17;97706.47;;;4.58;93.67
59531;BME280;45349;48.692;8.186;2023-04-15T06:04:43;97704.16;;;4.65;93.99
59531;BME280;45349;48.692;8.186;2023-04-15T06:07:10;97704.56;;;4.70;94.73
59531;BME280;45349;48.692;8.186;2023-04-15T06:09:36;97709.88;;;4.78;94.39
59531;BME280;45349;48.692;8.186;2023-04-15T06:12:03;97704.28;;;4.83;93.54
59531;BME280;45349;48.692;8.186;2023-04-15T06:14:32;97709.84;;;4.88;95.98
59531;BME280;45349;48.692;8.186;2023-04-15T06:16:59;97711.09;;;4.94;95.43
59531;BME280;45349;48.692;8.186;2023-04-15T06:19:25;97707.41;;;4.96;93.29
59531;BME280;45349;48.692;8.186;2023-04-15T06:21:52;97709.31;;;5.04;91.11
59531;BME280;45349;48.692;8.186;2023-04-15T06:24:18;97719.78;;;5.12;90.73
59531;BME280;45349;48.692;8.186;2023-04-15T06:26:45;97717.31;;;5.21;90.20
59531;BME280;45349;48.692;8.186;2023-04-15T06:29:14;97720.03;;;5.29;89.44
59531;BME280;45349;48.692;8.186;2023-04-15T06:31:42;97725.31;;;5.37;88.31
59531;BME280;45349;48.692;8.186;2023-04-15T06:34:09;97719.97;;;5.49;87.10
59531;BME280;45349;48.692;8.186;2023-04-15T06:36:35;97720.75;;;5.59;87.80
59531;BME280;45349;48.692;8.186;2023-04-15T06:39:02;97720.72;;;5.69;88.04
59531;BME280;45349;48.692;8.186;2023-04-15T06:41:29;97720.69;;;5.79;88.58
59531;BME280;45349;48.692;8.186;2023-04-15T06:43:55;97722.41;;;5.88;88.48
59531;BME280;45349;48.692;8.186;2023-04-15T06:46:22;97720.59;;;5.98;86.11
59531;BME280;45349;48.692;8.186;2023-04-15T06:48:50;97727.66;;;6.06;86.45
59531;BME280;45349;48.692;8.186;2023-04-15T06:51:16;97722.69;;;6.23;87.11
59531;BME280;45349;48.692;8.186;2023-04-15T06:53:43;97716.16;;;6.37;85.86
59531;BME280;45349;48.692;8.186;2023-04-15T06:56:10;97727.00;;;6.50;84.81
59531;BME280;45349;48.692;8.186;2023-04-15T06:58:36;97729.53;;;6.60;84.77
59531;BME280;45349;48.692;8.186;2023-04-15T07:01:03;97734.63;;;6.70;84.19
59531;BME280;45349;48.692;8.186;2023-04-15T07:03:30;97736.34;;;6.79;83.72
59531;BME280;45349;48.692;8.186;2023-04-15T07:05:58;97733.53;;;6.90;83.24
59531;BME280;45349;48.692;8.186;2023-04-15T07:08:25;97728.91;;;7.02;83.02
59531;BME280;45349;48.692;8.186;2023-04-15T07:10:52;97728.38;;;7.17;83.58
59531;BME280;45349;48.692;8.186;2023-04-15T07:13:19;97724.56;;;7.29;83.49
59531;BME280;45349;48.692;8.186;2023-04-15T07:15:46;97731.31;;;7.40;82.32
59531;BME280;45349;48.692;8.186;2023-04-15T07:18:12;97726.81;;;7.50;80.08
59531;BME280;45349;48.692;8.186;2023-04-15T07:20:39;97726.22;;;7.65;78.07
59531;BME280;45349;48.692;8.186;2023-04-15T07:23:07;97720.31;;;7.81;78.16
59531;BME280;45349;48.692;8.186;2023-04-15T07:25:33;97726.34;;;7.90;76.84
59531;BME280;45349;48.692;8.186;2023-04-15T07:28:00;97723.47;;;8.01;75.40
59531;BME280;45349;48.692;8.186;2023-04-15T07:30:27;97737.00;;;8.13;76.74
59531;BME280;45349;48.692;8.186;2023-04-15T07:32:54;97726.16;;;8.26;75.43
59531;BME280;45349;48.692;8.186;2023-04-15T07:35:21;97730.59;;;8.42;75.09
59531;BME280;45349;48.692;8.186;2023-04-15T07:37:49;97735.16;;;8.48;72.54
59531;BME280;45349;48.692;8.186;2023-04-15T07:40:17;97733.69;;;8.46;72.83
59531;BME280;45349;48.692;8.186;2023-04-15T07:42:44;97732.38;;;8.41;73.30
59531;BME280;45349;48.692;8.186;2023-04-15T07:45:12;97736.31;;;8.46;74.02
59531;BME280;45349;48.692;8.186;2023-04-15T07:47:39;97736.97;;;8.48;73.17
59531;BME280;45349;48.692;8.186;2023-04-15T07:50:08;97732.09;;;8.53;72.85
59531;BME280;45349;48.692;8.186;2023-04-15T07:52:35;97742.69;;;8.60;73.29
59531;BME280;45349;48.692;8.186;2023-04-15T07:55:04;97739.78;;;8.63;73.17
59531;BME280;45349;48.692;8.186;2023-04-15T07:57:32;97748.91;;;8.75;73.75
59531;BME280;45349;48.692;8.186;2023-04-15T07:59:59;97751.31;;;8.77;72.98
59531;BME280;45349;48.692;8.186;2023-04-15T08:02:38;97746.63;;;8.72;73.54
59531;BME280;45349;48.692;8.186;2023-04-15T08:05:05;97754.56;;;8.79;73.07
59531;BME280;45349;48.692;8.186;2023-04-15T08:07:32;97755.75;;;8.84;72.15
59531;BME280;45349;48.692;8.186;2023-04-15T08:09:59;97756.38;;;8.86;70.99
59531;BME280;45349;48.692;8.186;2023-04-15T08:12:25;97752.31;;;8.92;71.64
59531;BME280;45349;48.692;8.186;2023-04-15T08:14:54;97761.59;;;9.03;72.36
59531;BME280;45349;48.692;8.186;2023-04-15T08:17:20;97762.56;;;9.10;71.80
59531;BME280;45349;48.692;8.186;2023-04-15T08:19:47;97770.03;;;9.13;72.52
59531;BME280;45349;48.692;8.186;2023-04-15T08:22:14;97766.97;;;9.26;73.34
59531;BME280;45349;48.692;8.186;2023-04-15T08:24:41;97764.19;;;9.36;71.89
59531;BME280;45349;48.692;8.186;2023-04-15T08:27:07;97764.19;;;9.36;73.95
59531;BME280;45349;48.692;8.186;2023-04-15T08:29:34;97769.88;;;9.48;72.17
59531;BME280;45349;48.692;8.186;2023-04-15T08:32:02;97768.59;;;9.44;72.89
59531;BME280;45349;48.692;8.186;2023-04-15T08:34:29;97772.50;;;9.40;72.78
59531;BME280;45349;48.692;8.186;2023-04-15T08:36:56;97773.09;;;9.58;72.69
59531;BME280;45349;48.692;8.186;2023-04-15T08:39:22;97775.34;;;9.78;71.07
59531;BME280;45349;48.692;8.186;2023-04-15T08:41:51;97788.97;;;10.05;69.39
59531;BME280;45349;48.692;8.186;2023-04-15T08:44:22;97786.63;;;10.18;66.41
59531;BME280;45349;48.692;8.186;2023-04-15T08:46:50;97782.19;;;10.27;66.16
59531;BME280;45349;48.692;8.186;2023-04-15T08:49:20;97783.69;;;10.22;66.04
59531;BME280;45349;48.692;8.186;2023-04-15T08:51:48;97787.41;;;10.27;66.51
59531;BME280;45349;48.692;8.186;2023-04-15T08:54:14;97782.59;;;10.56;63.72
59531;BME280;45349;48.692;8.186;2023-04-15T08:56:41;97791.22;;;10.56;64.73
59531;BME280;45349;48.692;8.186;2023-04-15T08:59:08;97792.06;;;10.80;64.82
59531;BME280;45349;48.692;8.186;2023-04-15T09:01:36;97780.81;;;10.80;65.96
59531;BME280;45349;48.692;8.186;2023-04-15T09:04:04;97780.34;;;10.76;65.13
59531;BME280;45349;48.692;8.186;2023-04-15T09:06:33;97782.72;;;10.86;63.96
59531;BME280;45349;48.692;8.186;2023-04-15T09:09:00;97792.59;;;11.22;58.76
59531;BME280;45349;48.692;8.186;2023-04-15T09:11:29;97789.50;;;11.42;58.83
59531;BME280;45349;48.692;8.186;2023-04-15T09:13:56;97790.41;;;11.49;59.72
59531;BME280;45349;48.692;8.186;2023-04-15T09:16:22;97794.09;;;11.55;58.28
59531;BME280;45349;48.692;8.186;2023-04-15T09:18:49;97803.69;;;11.77;57.19
59531;BME280;45349;48.692;8.186;2023-04-15T09:21:16;97802.53;;;11.80;55.94
59531;BME280;45349;48.692;8.186;2023-04-15T09:23:55;97806.69;;;11.89;54.85
59531;BME280;45349;48.692;8.186;2023-04-15T09:26:34;97809.41;;;12.11;53.20
59531;BME280;45349;48.692;8.186;2023-04-15T09:29:04;97811.31;;;12.17;54.24
59531;BME280;45349;48.692;8.186;2023-04-15T09:31:32;97815.72;;;12.32;55.15
59531;BME280;45349;48.692;8.186;2023-04-15T09:33:59;97821.69;;;12.25;54.04
59531;BME280;45349;48.692;8.186;2023-04-15T09:36:25;97819.44;;;12.22;53.83
59531;BME280;45349;48.692;8.186;2023-04-15T09:38:56;97820.47;;;12.58;52.67
59531;BME280;45349;48.692;8.186;2023-04-15T09:41:23;97833.03;;;12.63;53.09
59531;BME280;45349;48.692;8.186;2023-04-15T09:43:50;97816.53;;;12.47;54.45
59531;BME280;45349;48.692;8.186;2023-04-15T09:46:16;97826.78;;;12.64;53.40
59531;BME280;45349;48.692;8.186;2023-04-15T09:48:43;97829.78;;;12.61;50.72
59531;BME280;45349;48.692;8.186;2023-04-15T09:51:10;97828.06;;;12.90;50.41
59531;BME280;45349;48.692;8.186;2023-04-15T09:53:38;97830.91;;;13.10;50.94
59531;BME280;45349;48.692;8.186;2023-04-15T09:56:06;97834.06;;;13.27;52.03
59531;BME280;45349;48.692;8.186;2023-04-15T09:58:34;97827.34;;;13.18;53.38
59531;BME280;45349;48.692;8.186;2023-04-15T10:01:04;97841.22;;;13.55;52.30
59531;BME280;45349;48.692;8.186;2023-04-15T10:03:33;97835.97;;;13.83;49.73
59531;BME280;45349;48.692;8.186;2023-04-15T10:06:01;97833.03;;;13.43;51.43
59531;BME280;45349;48.692;8.186;2023-04-15T10:08:31;97839.63;;;13.61;49.35
59531;BME280;45349;48.692;8.186;2023-04-15T10:11:00;97846.13;;;13.65;50.12
59531;BME280;45349;48.692;8.186;2023-04-15T10:13:30;97845.81;;;13.53;49.30
59531;BME280;45349;48.692;8.186;2023-04-15T10:16:04;97845.16;;;14.01;48.56
59531;BME280;45349;48.692;8.186;2023-04-15T10:18:34;97849.13;;;14.19;47.83
59531;BME280;45349;48.692;8.186;2023-04-15T10:21:05;97854.16;;;14.20;46.71
59531;BME280;45349;48.692;8.186;2023-04-15T10:23:34;97844.97;;;14.02;46.51
59531;BME280;45349;48.692;8.186;2023-04-15T10:26:02;97842.66;;;14.21;46.93
59531;BME280;45349;48.692;8.186;2023-04-15T10:28:31;97847.81;;;14.43;46.21
59531;BME280;45349;48.692;8.186;2023-04-15T10:30:58;97850.50;;;14.56;45.08
59531;BME280;45349;48.692;8.186;2023-04-15T10:33:25;97854.06;;;14.84;45.88
59531;BME280;45349;48.692;8.186;2023-04-15T10:35:54;97848.41;;;14.87;44.00
59531;BME280;45349;48.692;8.186;2023-04-15T10:38:39;97851.72;;;15.23;43.94
59531;BME280;45349;48.692;8.186;2023-04-15T10:41:14;97859.38;;;15.17;42.86
59531;BME280;45349;48.692;8.186;2023-04-15T10:43:47;97862.22;;;15.09;42.04
59531;BME280;45349;48.692;8.186;2023-04-15T10:46:17;97856.38;;;15.41;42.72
59531;BME280;45349;48.692;8.186;2023-04-15T10:48:48;97858.00;;;15.15;43.76
59531;BME280;45349;48.692;8.186;2023-04-15T10:51:15;97871.38;;;15.40;43.84
59531;BME280;45349;48.692;8.186;2023-04-15T10:53:43;97856.00;;;15.37;43.17
59531;BME280;45349;48.692;8.186;2023-04-15T10:56:09;97860.03;;;15.80;39.93
59531;BME280;45349;48.692;8.186;2023-04-15T10:58:42;97865.31;;;15.46;41.41
59531;BME280;45349;48.692;8.186;2023-04-15T11:01:12;97868.13;;;15.45;41.82
59531;BME280;45349;48.692;8.186;2023-04-15T11:03:40;97863.47;;;15.60;41.38
59531;BME280;45349;48.692;8.186;2023-04-15T11:06:08;97874.59;;;15.42;40.64
59531;BME280;45349;48.692;8.186;2023-04-15T11:08:55;97868.94;;;15.79;39.73
59531;BME280;45349;48.692;8.186;2023-04-15T11:14:24;97880.88;;;15.75;39.25
59531;BME280;45349;48.692;8.186;2023-04-15T11:16:52;97889.59;;;15.48;40.97
59531;BME280;45349;48.692;8.186;2023-04-15T11:19:19;97882.09;;;15.65;39.35
59531;BME280;45349;48.692;8.186;2023-04-15T11:21:46;97898.91;;;15.85;40.67
59531;BME280;45349;48.692;8.186;2023-04-15T11:24:22;97890.84;;;14.90;38.40
59531;BME280;45349;48.692;8.186;2023-04-15T11:26:56;97894.41;;;14.69;36.81
59531;BME280;45349;48.692;8.186;2023-04-15T11:29:28;97896.19;;;15.17;35.93
59531;BME280;45349;48.692;8.186;2023-04-15T11:32:03;97898.47;;;15.47;38.42
59531;BME280;45349;48.692;8.186;2023-04-15T11:34:31;97908.22;;;15.54;36.03
59531;BME280;45349;48.692;8.186;2023-04-15T11:36:57;97906.19;;;15.62;37.63
59531;BME280;45349;48.692;8.186;2023-04-15T11:39:24;97904.19;;;15.85;38.10
59531;BME280;45349;48.692;8.186;2023-04-15T11:41:51;97916.41;;;15.10;38.64
59531;BME280;45349;48.692;8.186;2023-04-15T11:44:17;97918.34;;;14.95;40.34
59531;BME280;45349;48.692;8.186;2023-04-15T11:46:44;97915.94;;;15.00;38.73
59531;BME280;45349;48.692;8.186;2023-04-15T11:49:26;97920.53;;;14.78;36.24
59531;BME280;45349;48.692;8.186;2023-04-15T11:51:53;97921.31;;;15.33;37.66
59531;BME280;45349;48.692;8.186;2023-04-15T11:54:20;97930.00;;;15.41;37.53
59531;BME280;45349;48.692;8.186;2023-04-15T11:56:49;97922.56;;;15.58;36.04
59531;BME280;45349;48.692;8.186;2023-04-15T11:59:16;97929.50;;;15.92;35.33
59531;BME280;45349;48.692;8.186;2023-04-15T12:01:42;97929.34;;;15.18;34.50
59531;BME280;45349;48.692;8.186;2023-04-15T12:04:14;97926.03;;;15.85;33.77
59531;BME280;45349;48.692;8.186;2023-04-15T12:06:44;97929.91;;;16.09;33.93
59531;BME280;45349;48.692;8.186;2023-04-15T12:09:11;97934.31;;;16.43;33.30
59531;BME280;45349;48.692;8.186;2023-04-15T12:11:43;97939.19;;;16.32;32.06
59531;BME280;45349;48.692;8.186;2023-04-15T12:14:20;97936.78;;;16.24;34.42
59531;BME280;45349;48.692;8.186;2023-04-15T12:16:48;97938.19;;;15.79;33.98
59531;BME280;45349;48.692;8.186;2023-04-15T12:19:17;97943.06;;;16.03;33.10
59531;BME280;45349;48.692;8.186;2023-04-15T12:21:46;97948.50;;;15.81;33.67
59531;BME280;45349;48.692;8.186;2023-04-15T12:24:14;97947.38;;;15.15;32.58
59531;BME280;45349;48.692;8.186;2023-04-15T12:26:46;97950.16;;;15.13;33.39
59531;BME280;45349;48.692;8.186;2023-04-15T12:29:15;97955.72;;;14.83;36.01
59531;BME280;45349;48.692;8.186;2023-04-15T12:31:47;97949.88;;;15.63;34.99
59531;BME280;45349;48.692;8.186;2023-04-15T12:34:15;97954.19;;;15.91;37.75
59531;BME280;45349;48.692;8.186;2023-04-15T12:36:42;97964.31;;;16.01;36.26
59531;BME280;45349;48.692;8.186;2023-04-15T12:39:10;97960.47;;;16.11;35.68
59531;BME280;45349;48.692;8.186;2023-04-15T12:41:36;97965.34;;;16.34;35.88
59531;BME280;45349;48.692;8.186;2023-04-15T12:44:03;97966.94;;;16.42;35.77
59531;BME280;45349;48.692;8.186;2023-04-15T12:46:29;97970.38;;;16.35;36.03
59531;BME280;45349;48.692;8.186;2023-04-15T12:48:56;97972.63;;;16.38;36.08
59531;BME280;45349;48.692;8.186;2023-04-15T12:51:23;97979.28;;;16.48;37.05
59531;BME280;45349;48.692;8.186;2023-04-15T12:53:50;97987.00;;;15.89;36.97
59531;BME280;45349;48.692;8.186;2023-04-15T12:56:18;97985.47;;;15.46;39.07
59531;BME280;45349;48.692;8.186;2023-04-15T12:58:45;97988.47;;;15.36;39.08
59531;BME280;45349;48.692;8.186;2023-04-15T13:01:11;97989.69;;;14.85;40.10
59531;BME280;45349;48.692;8.186;2023-04-15T13:03:38;97995.56;;;15.42;39.08
59531;BME280;45349;48.692;8.186;2023-04-15T13:06:05;97999.47;;;15.60;39.74
59531;BME280;45349;48.692;8.186;2023-04-15T13:08:32;97994.06;;;15.19;39.84
59531;BME280;45349;48.692;8.186;2023-04-15T13:10:59;98007.03;;;15.21;39.85
59531;BME280;45349;48.692;8.186;2023-04-15T13:13:27;98009.84;;;15.19;38.21